Airport View

Enter AWOS ICAO identifier for current METAR.

ex. KFNL

KY19 080410Z AUTO 14017G25KT 10SM VCTS OVC060 24/20 A2964 RMK AO2 LTG DSNT ALQDS PWINO

8 Jul 2020 04:12

Frequency: 118.225

Phone: 701-663-0271

Other Area AWOS: KBIS - KD57 - KHZE - K7L2

TAF AMD KBIS 080344Z 0804/0824 11016G25KT P6SM VCTS SCT030 BKN080CB TEMPO 0804/0806 VRB40G55KT 1/2SM +TSRA BKN030CB FM080700 29010KT P6SM VCTS SCT030CB BKN100 FM081000 29010KT P6SM FEW080 SCT200